Time;durP1;ratioP1;P1;durP2;ratioP2;P2;SDS_P1;SDS_P2;PMS_P1;PMS_P2;Temp;Humidity;BMP_temperature;BMP_pressure;BME280_temperature;BME280_humidity;BME280_pressure;Samples;Min_cycle;Max_cycle;Signal;HPM_P1;HPM_P2
2023/10/30 00:00:45;;;;;;;7.78;4.00;;;;;;;12.56;69.33;99739.00;4966224;28;20401;-93
2023/10/30 00:03:21;;;;;;;;;;;;;;;;;;;;;
2023/10/30 00:05:48;;;;;;;7.82;3.58;;;;;;;12.49;69.03;99727.63;4965255;28;20090;-93
2023/10/30 00:08:16;;;;;;;8.13;4.10;;;;;;;12.48;69.27;99734.13;4947578;28;20027;-94
2023/10/30 00:10:43;;;;;;;8.80;3.50;;;;;;;12.59;69.43;99743.84;4946018;28;20116;-94
2023/10/30 00:13:12;;;;;;;4.82;2.50;;;;;;;12.51;69.47;99730.88;4963312;28;20090;-96
2023/10/30 00:15:37;;;;;;;4.22;2.10;;;;;;;12.41;69.28;99715.50;4964134;28;20125;-95
2023/10/30 00:18:03;;;;;;;13.88;4.82;;;;;;;12.51;69.44;99737.09;4964183;28;20057;-94
2023/10/30 00:20:29;;;;;;;5.45;3.80;;;;;;;12.52;69.75;99737.91;4963119;28;20025;-93
2023/10/30 00:22:54;;;;;;;6.22;2.80;;;;;;;12.43;69.73;99732.25;4961769;28;20030;-94
2023/10/30 00:25:21;;;;;;;5.53;3.10;;;;;;;12.42;69.96;99727.13;4947871;28;20034;-93
2023/10/30 00:27:47;;;;;;;5.55;2.45;;;;;;;12.43;69.50;99723.31;4947506;28;20636;-94
2023/10/30 00:30:13;;;;;;;6.35;3.03;;;;;;;12.53;69.26;99726.84;4946944;28;20127;-92
2023/10/30 00:32:39;;;;;;;6.22;3.47;;;;;;;12.44;69.23;99709.56;4964480;28;20030;-95
2023/10/30 00:35:05;;;;;;;8.98;3.88;;;;;;;12.47;69.32;99719.00;4963315;28;20041;-93
2023/10/30 00:37:33;;;;;;;4.45;2.33;;;;;;;12.46;69.75;99725.50;4964699;28;20030;-94
2023/10/30 00:40:02;;;;;;;7.93;3.22;;;;;;;12.53;69.57;99726.84;4962914;28;20069;-93
2023/10/30 00:42:28;;;;;;;3.97;2.20;;;;;;;12.40;70.04;99713.06;4961875;28;20027;-95
2023/10/30 00:44:55;;;;;;;5.95;2.60;;;;;;;12.25;70.04;99701.22;4946983;28;20401;-94
2023/10/30 00:47:24;;;;;;;9.13;4.07;;;;;;;12.46;70.03;99730.91;4962836;28;20042;-93
2023/10/30 00:49:49;;;;;;;9.07;4.93;;;;;;;12.38;70.00;99721.44;4962077;28;20030;-94
2023/10/30 00:52:15;;;;;;;4.55;2.92;;;;;;;12.29;70.14;99712.28;4961805;28;20033;-95
2023/10/30 00:54:41;;;;;;;5.80;2.67;;;;;;;12.17;70.15;99709.84;4962754;28;20031;-95
2023/10/30 00:57:07;;;;;;;5.28;2.30;;;;;;;12.08;70.11;99701.50;4961649;28;20093;-94
2023/10/30 00:59:32;;;;;;;12.05;5.70;;;;;;;12.13;70.11;99708.78;4945999;28;20031;-93
2023/10/30 01:01:58;;;;;;;6.30;2.85;;;;;;;12.18;70.27;99726.84;4945354;28;20027;-94
2023/10/30 01:04:24;;;;;;;6.75;4.80;;;;;;;12.04;70.11;99718.50;4945367;28;20029;-96
2023/10/30 01:06:50;;;;;;;9.90;2.92;;;;;;;11.99;70.46;99721.97;4961486;28;20027;-95
2023/10/30 01:09:15;;;;;;;7.65;3.13;;;;;;;11.99;70.70;99729.28;4944937;28;20109;-92
2023/10/30 01:11:41;;;;;;;5.88;3.35;;;;;;;11.88;70.48;99710.38;4945551;28;20143;-95
2023/10/30 01:14:07;;;;;;;11.45;3.70;;;;;;;11.86;70.56;99709.00;4961634;28;20043;-95
2023/10/30 01:16:32;;;;;;;7.43;3.50;;;;;;;12.14;70.18;99740.09;4961144;28;20034;-95
2023/10/30 01:18:59;;;;;;;4.72;2.45;;;;;;;11.98;70.63;99722.28;4946413;28;20054;-96
2023/10/30 01:21:24;;;;;;;7.70;3.17;;;;;;;11.79;71.06;99706.56;4961121;28;20027;-92
2023/10/30 01:23:50;;;;;;;8.73;4.00;;;;;;;11.90;71.06;99735.22;4945135;28;20030;-93
2023/10/30 01:26:16;;;;;;;10.55;5.55;;;;;;;11.73;71.30;99715.75;4961622;28;20485;-94
2023/10/30 01:28:41;;;;;;;8.70;4.25;;;;;;;11.77;71.02;99727.63;4945466;28;20115;-94
2023/10/30 01:31:07;;;;;;;7.78;3.38;;;;;;;11.61;70.89;99699.00;4945044;28;20054;-94
2023/10/30 01:33:32;;;;;;;5.32;3.42;;;;;;;11.61;71.38;99712.47;4945279;28;20022;-94
2023/10/30 01:35:58;;;;;;;6.43;3.13;;;;;;;11.68;71.29;99716.53;4945485;28;20102;-96
2023/10/30 01:38:24;;;;;;;6.88;3.22;;;;;;;11.62;71.35;99716.78;4961446;28;20031;-94
2023/10/30 01:40:50;;;;;;;10.07;4.47;;;;;;;11.66;71.15;99732.19;4945252;28;20050;-93
2023/10/30 01:43:15;;;;;;;9.13;3.70;;;;;;;11.60;71.19;99713.53;4944995;28;20405;-94
2023/10/30 01:45:41;;;;;;;12.95;3.92;;;;;;;11.59;71.07;99709.22;4945232;28;20022;-94
2023/10/30 01:48:09;;;;;;;12.98;4.47;;;;;;;11.52;71.68;99710.31;4945517;28;20405;-94
2023/10/30 01:50:35;;;;;;;10.30;4.43;;;;;;;11.50;71.38;99703.56;4944116;28;20037;-95
2023/10/30 01:53:01;;;;;;;11.15;4.75;;;;;;;11.53;71.13;99716.50;4944745;28;20050;-94
2023/10/30 01:55:27;;;;;;;12.02;6.55;;;;;;;11.42;71.43;99702.19;4944822;28;20023;-94
2023/10/30 01:57:53;;;;;;;8.93;5.32;;;;;;;11.48;71.48;99711.09;4959989;28;20023;-95
2023/10/30 02:00:19;;;;;;;8.15;5.05;;;;;;;11.57;71.46;99719.47;4945337;28;20065;-93
2023/10/30 02:02:46;;;;;;;8.90;5.72;;;;;;;11.67;71.33;99738.38;4945498;28;20058;-94
2023/10/30 02:05:13;;;;;;;15.73;6.65;;;;;;;11.50;71.28;99719.75;4945379;28;20058;-94
2023/10/30 02:07:41;;;;;;;16.58;6.45;;;;;;;11.41;71.50;99710.53;4944535;28;20117;-95
2023/10/30 02:10:07;;;;;;;11.38;6.10;;;;;;;11.38;71.51;99719.97;4944147;28;20030;-94
2023/10/30 02:12:33;;;;;;;10.52;5.85;;;;;;;11.35;71.39;99714.28;4944233;28;20077;-95
2023/10/30 02:14:58;;;;;;;10.52;6.60;;;;;;;11.29;71.34;99714.28;4944939;28;20030;-94
2023/10/30 02:17:24;;;;;;;10.15;6.45;;;;;;;11.20;71.29;99709.66;4945204;28;20029;-95
2023/10/30 02:19:49;;;;;;;14.32;6.68;;;;;;;11.21;71.52;99714.78;4944467;28;20022;-94
2023/10/30 02:22:15;;;;;;;18.70;7.75;;;;;;;11.24;71.23;99713.44;4945827;28;20034;-94
2023/10/30 02:24:40;;;;;;;13.65;7.72;;;;;;;11.14;71.28;99703.44;4945912;28;20473;-95
2023/10/30 02:27:06;;;;;;;12.68;6.97;;;;;;;11.12;71.32;99706.41;4946168;28;20026;-94
2023/10/30 02:29:32;;;;;;;14.25;7.80;;;;;;;11.10;71.40;99705.03;4945216;28;20134;-95
2023/10/30 02:31:57;;;;;;;15.70;7.90;;;;;;;11.07;71.78;99711.75;4959864;28;20050;-95
2023/10/30 02:34:23;;;;;;;14.05;7.95;;;;;;;11.16;71.83;99730.94;4961521;28;20026;-95
2023/10/30 02:36:49;;;;;;;17.58;7.95;;;;;;;11.30;71.36;99734.75;4960587;28;20038;-95
2023/10/30 02:39:14;;;;;;;15.85;7.55;;;;;;;10.96;71.76;99701.19;4961292;28;20174;-95
2023/10/30 02:41:40;;;;;;;16.52;7.97;;;;;;;10.92;71.89;99704.44;4945119;28;20031;-94
2023/10/30 02:44:06;;;;;;;13.95;7.70;;;;;;;11.03;71.90;99720.66;4944812;28;20019;-93
2023/10/30 02:46:32;;;;;;;16.08;8.48;;;;;;;10.87;71.94;99704.41;4943192;28;20059;-94
2023/10/30 02:48:58;;;;;;;15.15;8.77;;;;;;;10.90;72.06;99700.38;4944897;28;20114;-94
2023/10/30 02:51:27;;;;;;;14.73;9.40;;;;;;;10.97;71.83;99719.81;4943314;28;20029;-94
2023/10/30 02:53:52;;;;;;;13.40;8.18;;;;;;;10.94;72.13;99708.75;4943984;28;20030;-93
2023/10/30 02:56:20;;;;;;;13.27;7.63;;;;;;;11.03;72.01;99720.66;4960457;28;20057;-95
2023/10/30 02:58:46;;;;;;;15.00;8.00;;;;;;;10.98;71.65;99721.44;4944436;28;20134;-93
2023/10/30 03:01:17;;;;;;;14.32;7.88;;;;;;;11.07;71.87;99744.09;4944110;28;20046;-94
2023/10/30 03:03:43;;;;;;;18.40;9.13;;;;;;;10.94;71.89;99723.03;4960060;28;20041;-92
2023/10/30 03:06:08;;;;;;;12.80;7.97;;;;;;;10.83;71.92;99708.72;4944608;28;20117;-95
2023/10/30 03:08:34;;;;;;;16.25;8.57;;;;;;;10.91;72.22;99728.94;4944978;28;20548;-95
2023/10/30 03:10:59;;;;;;;16.52;8.43;;;;;;;10.79;72.24;99721.09;4944441;28;20023;-95
2023/10/30 03:13:25;;;;;;;14.77;8.07;;;;;;;10.77;72.35;99714.31;4960609;28;20617;-94
2023/10/30 03:15:52;;;;;;;17.88;8.68;;;;;;;10.73;72.11;99705.97;4945556;28;20028;-95
2023/10/30 03:18:20;;;;;;;19.63;9.43;;;;;;;10.78;71.75;99708.66;4944588;28;20022;-93
2023/10/30 03:20:50;;;;;;;16.75;8.85;;;;;;;10.86;72.04;99721.63;4944592;28;20377;-95
2023/10/30 03:23:15;;;;;;;13.40;8.50;;;;;;;10.83;72.07;99713.25;4944138;28;20023;-93
2023/10/30 03:25:41;;;;;;;19.38;9.30;;;;;;;10.83;71.93;99703.31;4960244;28;20022;-95
2023/10/30 03:28:07;;;;;;;18.35;9.55;;;;;;;10.96;72.36;99738.91;4944294;28;20362;-96
2023/10/30 03:30:41;;;;;;;18.38;9.75;;;;;;;10.76;72.63;99726.16;4959979;28;20030;-93
2023/10/30 03:33:08;;;;;;;17.27;8.95;;;;;;;10.75;72.19;99719.97;4959967;28;20019;-95
2023/10/30 03:35:36;;;;;;;18.15;9.13;;;;;;;10.62;72.52;99707.75;4959636;28;20027;-93
2023/10/30 03:38:02;;;;;;;20.10;9.43;;;;;;;10.70;71.95;99717.25;4945538;28;20122;-93
2023/10/30 03:40:28;;;;;;;14.95;9.70;;;;;;;10.74;71.69;99729.13;4948069;28;20019;-92
2023/10/30 03:42:54;;;;;;;15.32;9.30;;;;;;;10.70;71.95;99723.44;4947279;28;20034;-93
2023/10/30 03:45:19;;;;;;;18.77;9.75;;;;;;;10.72;71.87;99723.97;4962769;28;20049;-95
2023/10/30 03:47:45;;;;;;;19.05;10.43;;;;;;;10.73;71.96;99724.81;4947807;28;20027;-96
2023/10/30 03:50:13;;;;;;;19.85;9.55;;;;;;;10.65;72.47;99720.72;4947196;28;20029;-94
2023/10/30 03:52:39;;;;;;;16.98;9.65;;;;;;;10.75;72.46;99738.84;4947509;28;20531;-96
2023/10/30 03:55:05;;;;;;;18.00;9.98;;;;;;;10.66;72.10;99725.03;4946975;28;20030;-94
2023/10/30 03:57:31;;;;;;;17.88;9.75;;;;;;;10.47;72.34;99695.03;4947491;28;20030;-93
2023/10/30 03:59:56;;;;;;;13.57;8.80;;;;;;;10.72;72.30;99733.94;4963498;28;20031;-94
2023/10/30 04:02:22;;;;;;;21.10;10.25;;;;;;;10.62;72.37;99715.03;4963683;28;20025;-93
2023/10/30 04:04:48;;;;;;;13.40;9.15;;;;;;;10.62;72.23;99713.16;4946761;28;20030;-96
2023/10/30 04:07:13;;;;;;;18.30;8.48;;;;;;;10.61;72.38;99713.44;4963393;28;20031;-92
2023/10/30 04:09:39;;;;;;;18.33;9.50;;;;;;;10.55;72.92;99707.19;4947447;28;20441;-95
2023/10/30 04:12:05;;;;;;;16.30;8.30;;;;;;;10.51;72.39;99706.09;4947234;28;20069;-95
2023/10/30 04:14:30;;;;;;;19.08;10.05;;;;;;;10.63;72.14;99709.41;4946050;28;20050;-93
2023/10/30 04:17:01;;;;;;;21.00;9.98;;;;;;;10.56;72.58;99719.56;4963178;28;20532;-94
2023/10/30 04:19:28;;;;;;;17.52;9.68;;;;;;;10.48;72.41;99702.03;4948020;28;20117;-95
2023/10/30 04:22:03;;;;;;;15.10;9.07;;;;;;;10.53;72.53;99714.72;4954803;28;20045;-96
2023/10/30 04:24:40;;;;;;;16.08;9.38;;;;;;;10.60;72.42;99725.25;4972364;28;20571;-96
2023/10/30 04:27:08;;;;;;;16.20;8.95;;;;;;;10.40;73.32;99712.50;4918427;29;20066;-96
2023/10/30 04:29:34;;;;;;;17.40;8.68;;;;;;;10.59;72.97;99742.50;4918181;29;20047;-94
2023/10/30 04:32:03;;;;;;;17.40;9.23;;;;;;;10.40;72.99;99699.03;4908171;29;20039;-93
2023/10/30 04:34:29;;;;;;;20.48;10.20;;;;;;;10.43;73.02;99712.75;4892213;29;20024;-96
2023/10/30 04:37:07;;;;;;;24.92;10.57;;;;;;;10.40;73.15;99717.88;4891716;29;20566;-94
2023/10/30 04:39:53;;;;;;;;;;;;;;;;;;;;;
2023/10/30 04:42:30;;;;;;;20.85;10.60;;;;;;;10.49;72.94;99741.34;4914040;29;20151;-94
2023/10/30 04:44:57;;;;;;;17.95;11.23;;;;;;;10.24;72.60;99706.16;4912630;29;20072;-96
2023/10/30 04:47:31;;;;;;;21.98;12.00;;;;;;;10.36;72.49;99727.53;4912567;29;20099;-96
2023/10/30 04:50:02;;;;;;;24.75;12.40;;;;;;;10.46;72.60;99739.19;4916232;29;20047;-96
2023/10/30 04:52:31;;;;;;;23.10;11.32;;;;;;;10.57;72.34;99744.63;4953223;28;20074;-96
2023/10/30 04:55:05;;;;;;;29.38;12.38;;;;;;;10.32;72.53;99705.69;4973664;28;20031;-96
2023/10/30 04:57:38;;;;;;;32.20;14.07;;;;;;;10.43;72.64;99733.50;4964401;28;20038;-95
2023/10/30 05:00:07;;;;;;;24.52;12.30;;;;;;;10.36;72.95;99733.72;4955988;28;20098;-96
2023/10/30 05:05:22;;;;;;;25.80;12.05;;;;;;;10.34;72.76;99722.41;4974736;28;20022;-95
2023/10/30 05:07:47;;;;;;;30.00;12.40;;;;;;;10.36;72.65;99714.88;4955466;28;20480;-96
2023/10/30 05:10:28;;;;;;;;;;;;;;;;;;;;;
2023/10/30 05:13:23;;;;;;;27.70;12.45;;;;;;;10.40;72.90;99734.03;4979187;28;20075;-96
2023/10/30 05:15:57;;;;;;;27.08;13.23;;;;;;;10.47;73.10;99759.63;4949289;28;20039;-95
2023/10/30 05:18:43;;;;;;;23.67;11.45;;;;;;;10.47;72.97;99756.13;4963886;28;20027;-95
2023/10/30 05:21:25;;;;;;;21.42;11.60;;;;;;;10.37;72.57;99737.22;4963141;28;20138;-95
2023/10/30 05:24:20;;;;;;;21.37;11.10;;;;;;;10.61;72.54;99778.84;5393866;23;20334;-93
2023/10/30 05:27:00;;;;;;;20.67;12.32;;;;;;;10.42;72.75;99748.84;4993347;28;20301;-95
2023/10/30 05:29:40;;;;;;;33.75;14.18;;;;;;;10.40;72.92;99750.97;4964779;28;20093;-96
2023/10/30 05:34:46;;;;;;;29.17;15.48;;;;;;;10.49;72.76;99756.69;5120879;23;20054;-96
2023/10/30 05:37:28;;;;;;;35.42;16.50;;;;;;;10.45;72.45;99742.94;4971881;28;20034;-94
2023/10/30 05:39:56;;;;;;;104.20;20.52;;;;;;;10.59;73.06;99753.28;4991637;28;20034;-95
2023/10/30 05:42:24;;;;;;;35.67;16.70;;;;;;;10.57;72.66;99750.81;4971404;28;20038;-95
2023/10/30 05:45:01;;;;;;;33.80;16.08;;;;;;;10.84;72.46;99779.56;4950264;28;20110;-94
2023/10/30 05:47:28;;;;;;;32.45;16.98;;;;;;;10.81;72.17;99770.13;4948536;28;20042;-95
2023/10/30 05:52:32;;;;;;;39.20;18.10;;;;;;;10.79;72.50;99774.94;4966560;28;20101;-94
2023/10/30 05:55:09;;;;;;;31.48;17.65;;;;;;;10.90;72.16;99790.09;4930885;28;20090;-95
2023/10/30 05:57:42;;;;;;;33.90;16.65;;;;;;;11.01;71.85;99788.25;4932828;28;20052;-95
2023/10/30 06:00:21;;;;;;;28.98;15.95;;;;;;;11.09;71.36;99778.88;4938712;28;20046;-95
2023/10/30 06:03:14;;;;;;;;;;;;;;;;;;;;;
2023/10/30 06:06:00;;;;;;;33.60;16.17;;;;;;;11.27;71.43;99783.81;4972601;28;20126;-95
2023/10/30 06:08:43;;;;;;;30.42;16.50;;;;;;;11.38;71.08;99791.97;4972571;28;20045;-96
2023/10/30 06:11:13;;;;;;;32.25;16.55;;;;;;;11.43;70.86;99797.34;4935858;28;20109;-95
2023/10/30 06:13:40;;;;;;;35.53;16.00;;;;;;;11.51;70.15;99794.97;4941239;28;20022;-94
2023/10/30 06:16:15;;;;;;;34.63;16.27;;;;;;;11.44;70.70;99778.22;4950652;28;20031;-95
2023/10/30 06:18:44;;;;;;;49.13;20.52;;;;;;;11.67;70.58;99813.91;4932963;28;20050;-93
2023/10/30 06:22:05;;;;;;;46.60;17.58;;;;;;;11.70;70.41;99797.19;4939273;28;20030;-91
2023/10/30 06:27:40;;;;;;;39.58;18.98;;;;;;;12.06;69.78;99817.00;5463959;23;20055;-95
2023/10/30 06:30:24;;;;;;;45.92;21.58;;;;;;;12.09;69.33;99802.16;4953382;28;20026;-95
2023/10/30 06:32:53;;;;;;;51.58;21.02;;;;;;;12.22;69.23;99800.81;4936883;28;20022;-95
2023/10/30 06:35:33;;;;;;;45.50;19.92;;;;;;;12.48;68.81;99815.97;4937807;28;20109;-96
2023/10/30 06:38:18;;;;;;;41.33;20.13;;;;;;;12.40;68.70;99780.59;4953412;28;20029;-94
2023/10/30 06:40:44;;;;;;;40.20;19.45;;;;;;;12.69;68.75;99795.16;4954745;28;20042;-92
2023/10/30 06:43:09;;;;;;;46.28;21.15;;;;;;;12.77;68.06;99787.59;4930926;28;20031;-93
2023/10/30 06:45:35;;;;;;;35.35;19.58;;;;;;;12.88;67.96;99781.06;4932025;28;20050;-93
2023/10/30 06:48:00;;;;;;;43.67;24.05;;;;;;;13.06;67.02;99777.78;4928289;29;20015;-91
2023/10/30 06:50:31;;;;;;;35.53;20.35;;;;;;;13.27;67.06;99775.03;4927357;29;20037;-92
2023/10/30 06:52:58;;;;;;;47.42;23.48;;;;;;;13.41;67.38;99786.91;4924201;29;20041;-92
2023/10/30 06:55:23;;;;;;;38.55;21.02;;;;;;;13.48;67.43;99764.94;4920641;29;20051;-90
2023/10/30 06:57:48;;;;;;;46.15;24.70;;;;;;;13.72;66.89;99784.06;4968128;28;20031;-89
2023/10/30 07:00:14;;;;;;;41.17;22.75;;;;;;;13.83;66.22;99769.34;4927725;28;20500;-90
2023/10/30 07:02:42;;;;;;;42.20;21.00;;;;;;;14.06;66.05;99781.38;4943489;28;20484;-93
2023/10/30 07:05:16;;;;;;;41.35;20.77;;;;;;;14.29;65.42;99803.44;4931954;28;20026;-94
2023/10/30 07:07:43;;;;;;;37.50;20.33;;;;;;;14.24;65.22;99771.00;4922393;29;20114;-95
2023/10/30 07:10:10;;;;;;;47.03;24.85;;;;;;;14.37;64.95;99756.78;4913518;29;20066;-95
2023/10/30 07:12:54;;;;;;;39.25;22.83;;;;;;;14.66;64.70;99775.78;4917522;29;20075;-94
2023/10/30 07:15:26;;;;;;;41.95;22.05;;;;;;;14.80;64.24;99777.84;4921109;29;20031;-93
2023/10/30 07:17:55;;;;;;;42.58;20.80;;;;;;;14.99;64.01;99778.72;4927571;28;20027;-93
2023/10/30 07:20:32;;;;;;;52.92;24.08;;;;;;;15.04;63.95;99773.22;4914862;29;20039;-92
2023/10/30 07:23:04;;;;;;;46.25;22.98;;;;;;;15.24;63.77;99774.91;4929087;29;20027;-94
2023/10/30 07:25:33;;;;;;;44.30;24.27;;;;;;;15.34;63.40;99763.94;4892505;29;20044;-93
2023/10/30 07:28:11;;;;;;;48.40;23.13;;;;;;;15.43;63.10;99761.38;4910072;29;20055;-96
2023/10/30 07:30:37;;;;;;;41.97;20.15;;;;;;;15.56;62.49;99766.09;4899137;29;20032;-95
2023/10/30 07:33:02;;;;;;;40.20;21.33;;;;;;;15.68;62.46;99760.22;4926813;29;20024;-94
2023/10/30 07:36:01;;;;;;;34.88;18.98;;;;;;;15.85;62.15;99770.59;4927010;29;20487;-95
2023/10/30 07:38:31;;;;;;;37.42;18.98;;;;;;;15.99;61.50;99762.53;4923069;29;20036;-94
2023/10/30 07:41:20;;;;;;;37.30;17.63;;;;;;;16.19;61.67;99769.56;4912943;29;20071;-96
2023/10/30 07:43:47;;;;;;;37.58;20.25;;;;;;;16.27;61.14;99751.78;4927551;29;20067;-95
2023/10/30 07:46:20;;;;;;;39.22;19.30;;;;;;;16.39;61.20;99746.66;4913594;29;20065;-95
2023/10/30 07:48:46;;;;;;;44.70;19.85;;;;;;;16.58;61.06;99757.50;4909925;29;20039;-95
2023/10/30 07:51:18;;;;;;;31.77;17.73;;;;;;;16.67;60.81;99738.59;4911798;29;20466;-96
2023/10/30 07:53:47;;;;;;;38.53;17.30;;;;;;;16.83;60.94;99748.13;4912007;29;20055;-95
2023/10/30 07:56:15;;;;;;;42.80;23.65;;;;;;;16.93;60.41;99744.38;4920850;28;20071;-95
2023/10/30 07:58:59;;;;;;;35.17;17.70;;;;;;;17.04;61.01;99734.13;4935178;28;20030;-95
2023/10/30 08:08:08;;;;;;;24.60;11.98;;;;;;;17.66;59.55;99756.22;5008043;28;20053;-93
2023/10/30 08:10:55;;;;;;;;;;;;;;;;;;;;;
2023/10/30 08:13:23;;;;;;;18.77;9.23;;;;;;;17.83;59.36;99744.72;4953923;29;20059;-93
2023/10/30 08:16:10;;;;;;;13.63;9.13;;;;;;;17.90;59.56;99728.72;4963263;28;20080;-94
2023/10/30 08:18:42;;;;;;;14.52;7.05;;;;;;;18.06;60.21;99723.72;4977225;28;20029;-95
2023/10/30 08:21:17;;;;;;;12.60;7.57;;;;;;;18.31;59.13;99733.19;4990196;28;20030;-96
2023/10/30 08:24:21;;;;;;;18.35;7.65;;;;;;;18.38;59.00;99713.66;4978854;28;20017;-93
2023/10/30 08:26:47;;;;;;;14.80;8.98;;;;;;;18.62;58.50;99734.34;5003247;28;20074;-94
2023/10/30 08:29:15;;;;;;;19.65;9.07;;;;;;;18.70;58.65;99718.00;4990342;28;20026;-95
2023/10/30 08:35:19;;;;;;;18.05;7.80;;;;;;;19.00;58.21;99726.50;4909114;28;20019;-96
2023/10/30 08:37:45;;;;;;;17.08;8.82;;;;;;;19.18;58.25;99728.16;4937175;29;20118;-93
2023/10/30 08:40:14;;;;;;;14.18;7.18;;;;;;;19.35;57.68;99735.59;4942192;29;20436;-93
2023/10/30 08:42:48;;;;;;;15.68;8.23;;;;;;;19.44;57.13;99721.13;4959270;29;20536;-93
2023/10/30 08:45:45;;;;;;;14.68;7.75;;;;;;;19.53;57.34;99711.03;4916151;29;20038;-94
2023/10/30 08:48:55;;;;;;;;;;;;;;;;;;;;;
2023/10/30 08:52:09;;;;;;;17.33;8.75;;;;;;;19.98;56.73;99738.06;4900014;29;20079;-96
2023/10/30 08:54:44;;;;;;;14.50;6.75;;;;;;;19.97;56.20;99720.88;4880149;29;20044;-94
2023/10/30 08:57:12;;;;;;;13.25;7.18;;;;;;;20.04;56.44;99716.84;4928597;29;20031;-93
2023/10/30 08:59:40;;;;;;;12.07;6.38;;;;;;;20.19;56.27;99710.88;4970512;28;20053;-96
2023/10/30 09:02:35;;;;;;;19.42;8.65;;;;;;;20.34;55.85;99701.38;5132446;23;20046;-93
2023/10/30 09:04:55;;;;;;;14.82;7.00;;;;;;;20.43;55.42;99696.66;4994131;28;20046;-95
2023/10/30 09:07:29;;;;;;;12.05;6.72;;;;;;;20.67;55.02;99720.78;4976332;28;20022;-95
2023/10/30 09:10:15;;;;;;;38.55;18.92;;;;;;;20.65;53.77;99697.56;4979776;28;20033;-96
2023/10/30 09:13:25;;;;;;;;;;;;;;;;;;;;;
2023/10/30 09:16:57;;;;;;;;;;;;;;;;;;;;;
2023/10/30 09:19:51;;;;;;;15.95;6.20;;;;;;;21.11;51.75;99691.25;5018409;28;20042;-95
2023/10/30 09:22:32;;;;;;;10.18;5.18;;;;;;;21.33;51.62;99692.06;4958650;29;20079;-95
2023/10/30 09:25:27;;;;;;;13.85;6.35;;;;;;;21.45;51.07;99683.16;4918237;29;20058;-94
2023/10/30 09:28:47;;;;;;;11.05;6.90;;;;;;;21.57;51.75;99675.81;4896398;29;20040;-93
2023/10/30 09:32:01;;;;;;;11.32;5.85;;;;;;;21.79;50.63;99671.94;4919587;29;20048;-94
2023/10/30 09:37:57;;;;;;;9.82;5.40;;;;;;;22.07;50.34;99679.56;4875928;29;20119;-94
2023/10/30 09:40:26;;;;;;;13.75;5.05;;;;;;;22.18;49.72;99678.00;4875834;29;20046;-93
2023/10/30 09:42:54;;;;;;;15.40;7.35;;;;;;;22.25;49.71;99662.97;4880915;29;20040;-94
2023/10/30 09:45:29;;;;;;;15.02;5.30;;;;;;;22.26;49.28;99659.84;4905996;29;20036;-93
2023/10/30 09:48:00;;;;;;;9.32;5.45;;;;;;;22.28;48.06;99640.31;4889238;29;20483;-94
2023/10/30 10:28:16;;;;;;;12.32;5.10;;;;;;;23.29;43.29;99581.13;5023716;28;20030;-94
2023/10/30 10:33:54;;;;;;;;;;;;;;;;;;;;;
2023/10/30 10:36:59;;;;;;;;;;;;;;;;;;;;;
2023/10/30 10:39:14;;;;;;;10.90;4.53;;;;;;;23.53;41.75;99591.22;4953487;28;20075;-95
2023/10/30 10:41:49;;;;;;;12.23;4.25;;;;;;;23.53;41.65;99583.78;4972609;28;20083;-93
2023/10/30 10:44:34;;;;;;;6.38;3.40;;;;;;;23.61;40.04;99579.28;4987562;28;20496;-94
2023/10/30 10:47:09;;;;;;;7.47;3.45;;;;;;;23.71;39.26;99589.75;5745326;23;20032;-95
2023/10/30 10:49:57;;;;;;;8.50;3.75;;;;;;;23.77;39.91;99604.09;4976546;28;20406;-95
2023/10/30 12:04:05;;;;;;;59.65;7.55;;;;;;;24.14;37.92;99510.34;5015690;28;20046;-95
2023/10/30 12:06:30;;;;;;;17.90;3.38;;;;;;;24.26;37.76;99510.25;4969553;28;20093;-92
2023/10/30 12:08:56;;;;;;;8.77;3.35;;;;;;;24.26;37.19;99501.16;4955076;28;20078;-92
2023/10/30 12:11:22;;;;;;;9.00;4.55;;;;;;;24.28;37.66;99496.09;4947200;28;20045;-93
2023/10/30 12:44:43;;;;;;;14.23;3.67;;;;;;;24.21;36.58;99481.03;5754845;22;20122;31
2023/10/30 13:05:51;;;;;;;6.85;3.25;;;;;;;24.05;39.68;99428.00;4919613;29;20534;-95
2023/10/30 14:04:27;;;;;;;18.48;6.60;;;;;;;23.54;40.34;99442.44;4193854;22;20523;-95
2023/10/30 14:21:24;;;;;;;;;;;;;;;;;;;;;
2023/10/30 14:23:50;;;;;;;13.85;3.10;;;;;;;23.06;41.88;99438.84;4943525;28;20043;-87
2023/10/30 14:26:16;;;;;;;8.77;3.10;;;;;;;23.16;41.78;99456.78;4991399;28;20026;-87
2023/10/30 14:28:41;;;;;;;11.05;5.18;;;;;;;23.08;42.08;99444.78;4960786;28;20045;-88
2023/10/30 14:31:07;;;;;;;15.38;3.45;;;;;;;23.12;41.97;99447.63;4975718;28;20046;-87
2023/10/30 14:33:33;;;;;;;18.98;11.27;;;;;;;23.12;41.65;99442.13;4944196;28;20026;-88
2023/10/30 14:36:24;;;;;;;8.68;4.03;;;;;;;23.03;42.00;99445.00;4960483;28;20033;-90
2023/10/30 14:46:20;;;;;;;;;;;;;;;;;;;;;
2023/10/30 14:48:38;;;;;;;7.93;2.60;;;;;;;22.48;43.12;99416.38;4962096;28;20035;-93
2023/10/30 14:52:10;;;;;;;;;;;;;;;;;;;;;
2023/10/30 14:55:09;;;;;;;8.60;2.47;;;;;;;22.31;43.31;99436.66;4941591;29;20106;-95
2023/10/30 14:57:35;;;;;;;11.88;3.15;;;;;;;22.21;43.73;99435.16;4941083;29;20028;-95
2023/10/30 15:00:45;;;;;;;;;;;;;;;;;;;;;
2023/10/30 15:06:02;;;;;;;9.23;2.78;;;;;;;21.77;44.89;99423.97;4924007;29;20549;-91
2023/10/30 15:08:53;;;;;;;;;;;;;;;;;;;;;
2023/10/30 15:20:03;;;;;;;16.42;4.03;;;;;;;21.39;46.35;99444.19;4909270;29;20045;-93
2023/10/30 15:22:32;;;;;;;14.70;3.50;;;;;;;21.43;46.51;99469.00;4946742;28;20047;-94
2023/10/30 15:25:16;;;;;;;;;;;;;;;;;;;;;
2023/10/30 15:27:49;;;;;;;8.90;2.58;;;;;;;21.24;47.23;99464.03;5000429;28;20094;-95
2023/10/30 15:30:23;;;;;;;11.43;3.28;;;;;;;21.14;47.03;99465.25;4981566;28;20038;-96
2023/10/30 15:32:51;;;;;;;11.43;2.67;;;;;;;21.14;47.13;99479.72;4942338;29;20071;-96
2023/10/30 15:42:07;;;;;;;15.60;3.25;;;;;;;20.83;46.93;99461.00;4887793;29;20538;-95
2023/10/30 15:44:37;;;;;;;5.75;2.67;;;;;;;20.82;46.94;99456.69;4886575;29;20085;-93
2023/10/30 15:47:03;;;;;;;8.27;3.03;;;;;;;20.83;46.54;99480.16;4888151;29;20466;-96
2023/10/30 15:50:43;;;;;;;;;;;;;;;;;;;;;
2023/10/30 15:57:41;;;;;;;10.30;2.40;;;;;;;20.79;46.47;99507.41;4867973;29;20082;-93
2023/10/30 16:00:57;;;;;;;26.25;3.35;;;;;;;20.78;46.64;99514.00;4868621;29;20089;-95
2023/10/30 16:03:31;;;;;;;8.43;2.10;;;;;;;20.63;46.32;99495.47;4854317;29;20145;-94
2023/10/30 16:09:04;;;;;;;8.13;2.95;;;;;;;20.56;46.61;99501.41;5121182;23;20097;-94
2023/10/30 16:11:30;;;;;;;8.52;2.78;;;;;;;20.57;45.89;99504.97;4974791;28;20516;-94
2023/10/30 16:14:32;;;;;;;6.82;3.25;;;;;;;20.52;46.19;99494.19;4969090;28;20026;-94
2023/10/30 16:17:10;;;;;;;9.60;2.70;;;;;;;20.46;46.61;99499.09;4974510;28;20034;-90
2023/10/30 16:19:57;;;;;;;10.00;3.53;;;;;;;20.37;46.37;99490.91;4968357;28;20420;-91
2023/10/30 16:22:28;;;;;;;124.32;80.78;;;;;;;20.45;46.85;99516.63;4956719;28;20030;-91
2023/10/30 16:24:54;;;;;;;;;;;;;;;20.49;46.12;99524.97;4952191;28;20019;-91
2023/10/30 16:27:22;;;;;;;10.30;4.45;;;;;;;20.28;46.71;99508.50;4963625;28;19910;-92
2023/10/30 16:29:49;;;;;;;7.90;2.20;;;;;;;20.33;46.26;99530.19;4982988;28;20037;-93
2023/10/30 16:32:27;;;;;;;;;;;;;;;;;;;;;
2023/10/30 16:34:53;;;;;;;7.80;3.25;;;;;;;20.26;46.89;99533.44;4970738;28;20113;-93
2023/10/30 16:37:28;;;;;;;6.07;2.70;;;;;;;20.12;47.01;99521.94;4952108;28;20102;-95
2023/10/30 16:40:03;;;;;;;12.52;3.40;;;;;;;20.07;46.75;99520.19;4953351;28;20045;-95
2023/10/30 16:42:34;;;;;;;5.97;2.35;;;;;;;20.01;46.87;99523.44;4965177;28;20007;-93
2023/10/30 16:45:10;;;;;;;10.82;2.28;;;;;;;19.95;46.90;99520.06;4965627;28;20058;-95
2023/10/30 16:47:42;;;;;;;4.45;1.98;;;;;;;19.91;47.11;99525.38;4951891;28;20058;-94
2023/10/30 16:50:17;;;;;;;5.47;2.53;;;;;;;19.91;46.85;99533.59;4950481;28;20061;-95
2023/10/30 16:53:05;;;;;;;;;;;;;;;;;;;;;
2023/10/30 16:55:39;;;;;;;9.93;3.60;;;;;;;19.75;47.17;99522.38;4965329;28;20109;-94
2023/10/30 16:58:05;;;;;;;6.18;2.90;;;;;;;19.65;47.20;99508.25;4950201;28;20122;-87
2023/10/30 17:00:31;;;;;;;7.38;3.70;;;;;;;19.68;47.34;99530.25;4995454;28;20023;-87
2023/10/30 17:02:56;;;;;;;7.90;3.33;;;;;;;19.71;47.41;99547.94;4947374;28;20030;-88
2023/10/30 17:05:22;;;;;;;6.63;2.70;;;;;;;19.57;47.33;99524.34;4946085;28;20027;-89